createdAt,value
2017-10-11T00:01:28.487Z,4.72
2017-10-11T00:04:25.273Z,5.87
2017-10-11T00:07:22.348Z,5.87
2017-10-11T00:10:19.087Z,4.80
2017-10-11T00:13:16.570Z,5.47
2017-10-11T00:16:13.690Z,4.95
2017-10-11T00:19:10.849Z,4.50
2017-10-11T00:21:36.657Z,5.00
2017-10-11T00:24:27.446Z,5.80
2017-10-11T00:27:24.710Z,4.62
2017-10-11T00:30:22.443Z,6.15
2017-10-11T00:33:20.422Z,4.80
2017-10-11T00:36:17.472Z,5.62
2017-10-11T00:39:14.597Z,4.53
2017-10-11T00:45:01.419Z,4.25
2017-10-11T00:47:51.281Z,4.07
2017-10-11T01:07:17.728Z,2.90
2017-10-11T01:10:07.098Z,3.83
2017-10-11T01:13:04.306Z,4.40
2017-10-11T01:16:02.193Z,3.60
2017-10-11T01:18:59.908Z,3.30
2017-10-11T01:21:57.389Z,3.60
2017-10-11T01:31:05.798Z,3.15
2017-10-11T01:33:55.752Z,3.10
2017-10-11T01:36:52.969Z,4.00
2017-10-11T01:39:50.663Z,4.37
2017-10-11T01:42:48.698Z,3.78
2017-10-11T01:45:45.756Z,3.80
2017-10-11T01:48:42.705Z,3.25
2017-10-11T01:54:30.318Z,3.17
2017-10-11T01:57:20.025Z,3.53
2017-10-11T02:00:17.760Z,3.08
2017-10-11T02:16:07.702Z,4.20
2017-10-11T02:35:50.825Z,3.08
2017-10-11T02:38:16.621Z,3.10
2017-10-11T02:57:52.412Z,3.17
2017-10-11T03:00:18.209Z,3.05
2017-10-11T03:19:54.181Z,3.37
2017-10-11T03:22:19.983Z,2.60
2017-10-11T03:41:54.974Z,3.15
2017-10-11T03:44:20.804Z,2.70
2017-10-11T03:47:10.005Z,3.40
2017-10-11T03:50:07.361Z,3.00
2017-10-11T04:09:20.814Z,4.03
2017-10-11T04:12:17.369Z,3.05
2017-10-11T04:15:14.946Z,3.45
2017-10-11T04:27:55.506Z,3.85
2017-10-11T04:47:26.458Z,3.80
2017-10-11T04:49:52.249Z,4.30
2017-10-11T04:52:40.976Z,4.97
2017-10-11T04:55:38.297Z,4.97
2017-10-11T05:14:43.278Z,4.20
2017-10-11T05:17:40.122Z,6.10
2017-10-11T05:20:36.733Z,3.90
2017-10-11T05:23:40.061Z,4.18
2017-10-11T05:26:36.609Z,3.72
2017-10-11T05:35:43.351Z,4.20
2017-10-11T05:38:32.690Z,3.60
2017-10-11T05:41:29.242Z,4.30
2017-10-11T05:57:16.645Z,3.65
2017-10-11T06:00:05.287Z,4.97
2017-10-11T06:19:12.883Z,3.62
2017-10-11T06:22:01.488Z,3.73
2017-10-11T06:41:09.378Z,3.90
2017-10-11T06:43:58.810Z,4.83
2017-10-11T06:46:56.273Z,4.18
2017-10-11T07:02:43.806Z,2.75
2017-10-11T07:05:33.211Z,2.60
2017-10-11T07:08:30.614Z,2.83
2017-10-11T07:11:28.042Z,3.65
2017-10-11T07:14:25.394Z,2.40
2017-10-11T07:17:21.998Z,3.03
2017-10-11T07:20:18.810Z,1.98
2017-10-11T07:23:15.558Z,2.37
2017-10-11T07:42:22.206Z,2.30
2017-10-11T07:45:18.741Z,2.20
2017-10-11T07:47:44.507Z,1.90
2017-10-11T07:50:33.839Z,2.37
2017-10-11T08:09:42.154Z,3.17
2017-10-11T08:32:03.348Z,2.40
2017-10-11T08:51:34.291Z,2.70
2017-10-11T09:10:40.867Z,2.50
2017-10-11T09:13:37.414Z,1.83
2017-10-11T09:16:03.202Z,1.87
2017-10-11T09:35:33.975Z,2.23
2017-10-11T09:37:59.728Z,1.87
2017-10-11T09:40:49.166Z,2.00
2017-10-11T09:43:45.694Z,1.80
2017-10-11T09:46:42.207Z,1.30
2017-10-11T09:49:38.835Z,1.60
2017-10-11T09:59:28.463Z,2.10
2017-10-11T10:02:18.174Z,1.57
2017-10-11T10:21:25.455Z,1.43
2017-10-11T10:40:56.634Z,2.10
2017-10-11T11:00:03.216Z,1.30
2017-10-11T11:05:49.131Z,1.67
2017-10-11T11:08:38.608Z,1.67
2017-10-11T11:11:36.113Z,1.17
2017-10-11T11:14:32.638Z,1.20
2017-10-11T11:27:16.600Z,1.13
2017-10-11T11:38:36.534Z,1.10
2017-10-11T11:41:02.278Z,1.30
2017-10-11T11:43:28.027Z,1.20
2017-10-11T11:45:53.782Z,1.00
2017-10-11T11:48:19.763Z,0.97
2017-10-11T11:50:45.507Z,1.10
2017-10-11T11:53:11.290Z,0.90
2017-10-11T11:55:37.046Z,1.30
2017-10-11T11:58:02.798Z,1.00
2017-10-11T12:00:31.107Z,1.00
2017-10-11T12:02:57.142Z,1.23
2017-10-11T12:05:22.898Z,1.10
2017-10-11T12:07:48.674Z,1.40
2017-10-11T12:10:14.426Z,1.27
2017-10-11T12:12:40.199Z,1.27
2017-10-11T12:15:05.967Z,0.90
2017-10-11T12:17:31.709Z,1.60
2017-10-11T12:19:57.468Z,1.20
2017-10-11T12:22:23.214Z,1.00
2017-10-11T12:24:49.822Z,0.90
2017-10-11T12:27:15.565Z,1.27
2017-10-11T12:29:41.330Z,1.20
2017-10-11T12:32:07.088Z,1.13
2017-10-11T12:34:32.850Z,1.20
2017-10-11T12:36:58.691Z,1.10
2017-10-11T12:39:25.514Z,0.90
2017-10-11T12:41:51.868Z,1.20
2017-10-11T12:44:17.994Z,1.30
2017-10-11T12:46:44.063Z,1.47
2017-10-11T12:49:10.128Z,1.30
2017-10-11T12:51:36.541Z,1.07
2017-10-11T12:54:02.566Z,1.27
2017-10-11T12:56:29.686Z,2.07
2017-10-11T12:58:56.077Z,3.27
2017-10-11T13:01:22.335Z,1.30
2017-10-11T13:03:48.566Z,1.30
2017-10-11T13:06:15.258Z,1.47
2017-10-11T13:08:41.794Z,1.03
2017-10-11T13:11:08.496Z,1.10
2017-10-11T13:13:35.706Z,0.93
2017-10-11T13:16:02.394Z,1.00
2017-10-11T13:18:28.718Z,1.00
2017-10-11T13:20:55.387Z,1.37
2017-10-11T13:23:21.246Z,1.10
2017-10-11T13:25:46.979Z,1.10
2017-10-11T13:28:12.758Z,1.10
2017-10-11T13:30:38.604Z,1.10
2017-10-11T13:33:04.535Z,1.00
2017-10-11T13:35:30.385Z,1.10
2017-10-11T13:37:56.238Z,1.10
2017-10-11T13:40:21.996Z,1.27
2017-10-11T13:42:47.876Z,1.10
2017-10-11T13:45:13.620Z,1.00
2017-10-11T13:47:39.378Z,1.10
2017-10-11T13:50:05.163Z,1.10
2017-10-11T13:52:30.932Z,1.03
2017-10-11T13:54:56.710Z,1.27
2017-10-11T13:57:22.467Z,0.93
2017-10-11T13:59:48.207Z,1.00
2017-10-11T14:02:13.984Z,1.00
2017-10-11T14:04:39.745Z,1.07
2017-10-11T14:07:05.582Z,1.40
2017-10-11T14:09:31.332Z,1.47
2017-10-11T14:11:57.146Z,1.23
2017-10-11T14:14:22.938Z,1.10
2017-10-11T14:16:48.679Z,1.37
2017-10-11T14:19:14.592Z,1.07
2017-10-11T14:21:40.434Z,1.00
2017-10-11T14:24:06.247Z,1.00
2017-10-11T14:26:32.040Z,1.60
2017-10-11T14:28:57.907Z,11.70
2017-10-11T14:31:23.646Z,1.10
2017-10-11T14:33:49.526Z,1.33
2017-10-11T14:36:15.279Z,1.20
2017-10-11T14:38:41.038Z,1.00
2017-10-11T14:41:06.834Z,1.20
2017-10-11T14:43:32.919Z,1.30
2017-10-11T14:45:59.091Z,1.70
2017-10-11T14:48:25.599Z,1.90
2017-10-11T14:50:51.597Z,1.50
2017-10-11T14:53:17.990Z,1.27
2017-10-11T14:55:44.247Z,1.50
2017-10-11T14:58:09.994Z,1.13
2017-10-11T15:00:35.794Z,1.03
2017-10-11T15:03:01.611Z,1.10
2017-10-11T15:05:27.347Z,0.97
2017-10-11T15:07:53.115Z,0.87
2017-10-11T15:10:18.902Z,1.23
2017-10-11T15:12:44.638Z,1.83
2017-10-11T15:15:10.396Z,0.97
2017-10-11T15:17:36.710Z,1.10
2017-10-11T15:20:02.481Z,1.70
2017-10-11T15:22:28.315Z,1.23
2017-10-11T15:24:54.059Z,1.63
2017-10-11T15:27:19.822Z,1.30
2017-10-11T15:29:45.551Z,1.60
2017-10-11T15:32:11.300Z,1.50
2017-10-11T15:34:37.067Z,1.83
2017-10-11T15:37:26.086Z,1.50
2017-10-11T15:40:23.046Z,1.40
2017-10-11T15:56:11.405Z,2.00
2017-10-11T16:15:43.660Z,1.50
2017-10-11T16:18:09.435Z,2.67
2017-10-11T16:20:58.871Z,1.80
2017-10-11T16:23:55.766Z,2.70
2017-10-11T16:26:53.192Z,2.17
2017-10-11T16:39:47.627Z,1.97
2017-10-11T16:42:36.214Z,1.63
2017-10-11T17:01:44.262Z,2.13
2017-10-11T17:04:33.876Z,1.60
2017-10-11T17:23:44.039Z,1.33
2017-10-11T17:26:33.582Z,1.93
2017-10-11T17:29:30.775Z,1.87
2017-10-11T17:48:38.162Z,4.73
2017-10-11T18:07:46.161Z,2.90
2017-10-11T18:10:35.114Z,2.50
2017-10-11T18:29:43.005Z,2.50
2017-10-11T18:32:32.390Z,3.03
2017-10-11T18:35:29.260Z,2.60
2017-10-11T18:54:35.902Z,6.30
2017-10-11T19:13:43.986Z,5.10
2017-10-11T19:33:17.597Z,4.35
2017-10-11T19:35:43.343Z,4.50
2017-10-11T19:38:32.778Z,5.53
2017-10-11T19:57:41.779Z,4.62
2017-10-11T20:17:13.758Z,4.57
2017-10-11T20:36:21.896Z,3.50
2017-10-11T20:39:18.703Z,4.30
2017-10-11T20:41:44.459Z,8.27
2017-10-11T20:44:33.223Z,4.73
2017-10-11T21:03:43.062Z,4.80
2017-10-11T21:06:32.439Z,4.77
2017-10-11T21:09:28.974Z,4.35
2017-10-11T21:12:26.470Z,4.87
2017-10-11T21:15:23.042Z,4.90
2017-10-11T21:25:11.039Z,4.53
2017-10-11T21:27:59.894Z,4.87
2017-10-11T21:47:07.678Z,3.55
2017-10-11T21:49:56.911Z,4.30
2017-10-11T21:52:54.218Z,4.82
2017-10-11T21:55:51.016Z,4.93
2017-10-11T21:58:48.031Z,3.70
2017-10-11T22:01:44.815Z,2.85
2017-10-11T22:20:52.691Z,3.17
2017-10-11T22:23:49.432Z,3.12
2017-10-11T22:32:56.399Z,3.62
2017-10-11T22:35:45.354Z,3.37
2017-10-11T22:38:42.024Z,3.25
2017-10-11T22:41:38.703Z,3.15
2017-10-11T22:54:23.041Z,2.30
2017-10-11T22:57:12.367Z,3.15
2017-10-11T23:16:21.078Z,2.78
2017-10-11T23:35:52.858Z,2.20
2017-10-11T23:38:18.643Z,2.62
2017-10-11T23:57:50.795Z,1.90
